Time;durP1;ratioP1;P1;durP2;ratioP2;P2;SDS_P1;SDS_P2;PMS_P1;PMS_P2;Temp;Humidity;BMP_temperature;BMP_pressure;BME280_temperature;BME280_humidity;BME280_pressure;Samples;Min_cycle;Max_cycle;Signal;HPM_P1;HPM_P2
2023/10/28 00:01:00;;;;;;;4.80;3.15;;;10.40;99.90;;;;;;5041226;28;20051;-44
2023/10/28 00:03:26;;;;;;;5.40;3.17;;;10.40;99.90;;;;;;5041450;28;20079;-44
2023/10/28 00:05:51;;;;;;;3.17;2.88;;;10.40;99.90;;;;;;5041423;28;20136;-43
2023/10/28 00:08:17;;;;;;;4.10;3.03;;;10.40;99.90;;;;;;5041174;28;20025;-44
2023/10/28 00:10:44;;;;;;;5.63;3.78;;;10.50;99.90;;;;;;5042175;28;20021;-44
2023/10/28 00:13:14;;;;;;;5.00;2.67;;;10.50;99.90;;;;;;5041401;28;20413;-45
2023/10/28 00:15:40;;;;;;;3.85;2.60;;;10.50;99.90;;;;;;5041994;28;20021;-44
2023/10/28 00:18:08;;;;;;;6.65;2.83;;;10.50;99.90;;;;;;5041183;28;20025;-45
2023/10/28 00:20:34;;;;;;;4.05;3.28;;;10.50;99.90;;;;;;5036996;28;20032;-44
2023/10/28 00:23:03;;;;;;;4.20;3.58;;;10.50;99.90;;;;;;5041397;28;20029;-44
2023/10/28 00:25:31;;;;;;;3.30;2.92;;;10.50;99.90;;;;;;5041127;28;20029;-44
2023/10/28 00:27:58;;;;;;;5.78;2.72;;;10.50;99.90;;;;;;5040778;28;20024;-44
2023/10/28 00:30:24;;;;;;;3.55;2.78;;;10.60;99.90;;;;;;5040970;28;20061;-45
2023/10/28 00:32:52;;;;;;;5.45;2.47;;;10.60;99.90;;;;;;5041472;28;20385;-44
2023/10/28 00:35:18;;;;;;;4.32;2.60;;;10.60;99.90;;;;;;5040216;28;20028;-44
2023/10/28 00:37:45;;;;;;;5.32;2.83;;;10.60;99.90;;;;;;5041293;28;20127;-44
2023/10/28 00:40:11;;;;;;;4.57;3.03;;;10.60;99.90;;;;;;5041068;28;20029;-44
2023/10/28 00:42:37;;;;;;;3.83;2.70;;;10.60;99.90;;;;;;5040533;28;20036;-43
2023/10/28 00:45:03;;;;;;;8.75;3.38;;;10.60;99.90;;;;;;5040934;28;20173;-45
2023/10/28 00:47:30;;;;;;;4.32;2.85;;;10.60;99.90;;;;;;5040724;28;20025;-44
2023/10/28 00:49:59;;;;;;;4.70;3.00;;;10.60;99.90;;;;;;5040625;28;20488;-44
2023/10/28 00:52:27;;;;;;;3.35;2.50;;;10.70;99.90;;;;;;5041135;28;20476;-44
2023/10/28 00:54:54;;;;;;;6.30;3.03;;;10.70;99.90;;;;;;5040694;28;20032;-44
2023/10/28 00:57:21;;;;;;;6.20;2.72;;;10.70;99.90;;;;;;5040365;28;20035;-44
2023/10/28 00:59:50;;;;;;;3.90;2.40;;;10.80;99.90;;;;;;5041188;28;20036;-44
2023/10/28 01:02:17;;;;;;;5.10;2.55;;;10.80;99.90;;;;;;5039911;28;20136;-44
2023/10/28 01:04:43;;;;;;;3.42;2.40;;;10.80;99.90;;;;;;5041332;28;20037;-45
2023/10/28 01:07:09;;;;;;;3.67;2.30;;;10.80;99.90;;;;;;5040901;28;20903;-45
2023/10/28 01:09:47;;;;;;;5.05;2.20;;;10.90;99.90;;;;;;5040376;28;20020;-44
2023/10/28 01:12:13;;;;;;;4.47;2.33;;;10.90;99.90;;;;;;5040363;28;20115;-44
2023/10/28 01:14:43;;;;;;;2.60;2.00;;;10.90;99.90;;;;;;5040671;28;20521;-44
2023/10/28 01:17:13;;;;;;;3.78;2.22;;;10.90;99.90;;;;;;5039996;28;20021;-45
2023/10/28 01:19:38;;;;;;;2.97;2.05;;;11.00;99.90;;;;;;5040910;28;20033;-45
2023/10/28 01:22:05;;;;;;;4.78;2.20;;;11.00;99.90;;;;;;5040297;28;20044;-45
2023/10/28 01:24:34;;;;;;;3.53;2.22;;;11.00;99.90;;;;;;5040060;28;20037;-44
2023/10/28 01:27:01;;;;;;;4.10;2.40;;;11.10;99.90;;;;;;5040598;28;20107;-45
2023/10/28 01:29:26;;;;;;;3.17;2.17;;;11.10;99.90;;;;;;5040676;28;20104;-44
2023/10/28 01:31:52;;;;;;;3.92;2.25;;;11.20;99.90;;;;;;5039682;28;20349;-46
2023/10/28 01:34:17;;;;;;;4.22;2.25;;;11.20;99.90;;;;;;5040039;28;20091;-44
2023/10/28 01:36:45;;;;;;;4.03;2.25;;;11.20;99.90;;;;;;5040370;28;20032;-44
2023/10/28 01:39:12;;;;;;;4.43;2.42;;;11.30;99.90;;;;;;5039963;28;20132;-44
2023/10/28 01:41:38;;;;;;;3.60;2.22;;;11.30;99.90;;;;;;5044730;28;20464;-44
2023/10/28 01:44:04;;;;;;;8.60;2.35;;;11.30;99.90;;;;;;5044514;28;20075;-44
2023/10/28 01:46:30;;;;;;;4.18;2.03;;;11.30;99.90;;;;;;5043604;28;20806;-45
2023/10/28 01:48:56;;;;;;;4.43;2.28;;;11.30;99.90;;;;;;5044414;28;20021;-46
2023/10/28 01:51:22;;;;;;;3.40;1.98;;;11.30;99.90;;;;;;5043600;28;20427;-45
2023/10/28 01:53:47;;;;;;;4.88;2.40;;;11.30;99.90;;;;;;5045234;28;20049;-45
2023/10/28 01:56:12;;;;;;;3.60;1.98;;;11.30;99.90;;;;;;5044091;28;20371;-45
2023/10/28 01:58:38;;;;;;;4.97;2.22;;;11.30;99.90;;;;;;5043946;28;20172;-45
2023/10/28 02:01:04;;;;;;;3.90;2.10;;;11.30;99.90;;;;;;5044718;28;20074;-45
2023/10/28 02:03:30;;;;;;;3.58;1.77;;;11.30;99.90;;;;;;5044143;28;20041;-45
2023/10/28 02:05:56;;;;;;;3.28;2.20;;;11.30;99.90;;;;;;5043928;28;20911;-43
2023/10/28 02:08:21;;;;;;;3.03;1.60;;;11.30;99.90;;;;;;5044147;28;20488;-44
2023/10/28 02:10:47;;;;;;;2.50;1.83;;;11.30;99.90;;;;;;5044757;28;20024;-44
2023/10/28 02:13:13;;;;;;;2.88;1.90;;;11.30;99.90;;;;;;5043206;28;20031;-44
2023/10/28 02:15:38;;;;;;;3.72;1.95;;;11.30;99.90;;;;;;5044341;28;20482;-44
2023/10/28 02:18:04;;;;;;;3.55;1.55;;;11.30;99.90;;;;;;5044326;28;20491;-42
2023/10/28 02:20:30;;;;;;;4.72;1.90;;;11.40;99.90;;;;;;5043812;28;20517;-45
2023/10/28 02:22:56;;;;;;;2.28;1.55;;;11.30;99.90;;;;;;5043269;28;20025;-45
2023/10/28 02:25:23;;;;;;;2.90;1.75;;;11.40;99.90;;;;;;5043133;28;20062;-44
2023/10/28 02:27:49;;;;;;;3.70;1.75;;;11.30;99.90;;;;;;5043206;28;20036;-44
2023/10/28 02:30:16;;;;;;;4.38;1.70;;;11.40;99.90;;;;;;5043341;28;20025;-44
2023/10/28 02:32:41;;;;;;;3.42;1.60;;;11.30;99.90;;;;;;5043911;28;20029;-45
2023/10/28 02:35:07;;;;;;;2.20;1.63;;;11.40;99.90;;;;;;5041979;28;20048;-43
2023/10/28 02:37:33;;;;;;;1.95;1.50;;;11.30;99.90;;;;;;5042716;28;20946;-44
2023/10/28 02:39:58;;;;;;;4.47;1.70;;;11.30;99.90;;;;;;5042461;28;20206;-44
2023/10/28 02:42:24;;;;;;;2.88;1.75;;;11.30;99.90;;;;;;5041803;28;20477;-45
2023/10/28 02:44:50;;;;;;;2.53;1.70;;;11.30;99.90;;;;;;5042413;28;20041;-44
2023/10/28 02:47:16;;;;;;;2.88;1.70;;;11.40;99.90;;;;;;5041884;28;20029;-44
2023/10/28 02:49:42;;;;;;;5.63;1.70;;;11.30;99.90;;;;;;5041741;28;20037;-44
2023/10/28 02:52:07;;;;;;;2.03;1.70;;;11.30;99.90;;;;;;5042060;28;20426;-44
2023/10/28 02:54:36;;;;;;;2.95;1.80;;;11.30;99.90;;;;;;5041435;28;20111;-44
2023/10/28 02:57:02;;;;;;;2.65;1.70;;;11.30;99.90;;;;;;5041729;28;20550;-44
2023/10/28 02:59:28;;;;;;;4.13;1.95;;;11.30;99.90;;;;;;5042509;28;20021;-44
2023/10/28 03:01:54;;;;;;;3.45;1.55;;;11.20;99.90;;;;;;5041926;28;20021;-44
2023/10/28 03:04:22;;;;;;;3.05;1.50;;;11.20;99.90;;;;;;5042211;28;20037;-45
2023/10/28 03:06:48;;;;;;;3.42;1.50;;;11.20;99.90;;;;;;5042379;28;20063;-44
2023/10/28 03:09:13;;;;;;;4.80;1.67;;;11.20;99.90;;;;;;5041056;28;20115;-43
2023/10/28 03:11:39;;;;;;;2.80;1.50;;;11.20;99.90;;;;;;5042268;28;20013;-44
2023/10/28 03:14:08;;;;;;;2.88;1.50;;;11.20;99.90;;;;;;5042584;28;20220;-43
2023/10/28 03:16:33;;;;;;;3.20;1.65;;;11.20;99.90;;;;;;5041889;28;20104;-43
2023/10/28 03:18:59;;;;;;;2.47;1.58;;;11.20;99.90;;;;;;5041520;28;20025;-44
2023/10/28 03:21:24;;;;;;;2.30;1.52;;;11.20;99.90;;;;;;5041455;28;20698;-44
2023/10/28 03:23:50;;;;;;;3.17;1.40;;;11.20;99.90;;;;;;5041500;28;20768;-44
2023/10/28 03:26:16;;;;;;;3.75;1.50;;;11.20;99.90;;;;;;5041517;28;20586;-44
2023/10/28 03:28:41;;;;;;;3.35;1.42;;;11.30;99.90;;;;;;5042488;28;20036;-44
2023/10/28 03:31:11;;;;;;;3.03;1.50;;;11.30;99.90;;;;;;5040746;28;20029;-44
2023/10/28 03:33:40;;;;;;;1.42;1.27;;;11.30;99.90;;;;;;5005718;28;1043538;-44
2023/10/28 03:36:08;;;;;;;2.67;1.33;;;11.30;99.90;;;;;;5042375;28;20817;-44
2023/10/28 03:38:34;;;;;;;2.05;1.15;;;11.30;99.90;;;;;;5041968;28;20056;-45
2023/10/28 03:41:07;;;;;;;2.17;1.42;;;11.30;99.90;;;;;;5043021;28;20754;-45
2023/10/28 03:43:33;;;;;;;2.45;1.40;;;11.40;99.90;;;;;;5041778;28;20464;-44
2023/10/28 03:45:58;;;;;;;1.85;1.30;;;11.40;99.90;;;;;;5041392;28;20136;-44
2023/10/28 03:48:24;;;;;;;1.77;1.05;;;11.40;99.90;;;;;;5043233;28;20031;-44
2023/10/28 03:51:03;;;;;;;3.92;1.33;;;11.40;99.90;;;;;;5042003;28;20353;-44
2023/10/28 03:53:28;;;;;;;1.75;1.30;;;11.30;99.90;;;;;;5041858;28;20064;-44
2023/10/28 03:55:55;;;;;;;2.30;1.33;;;11.40;99.90;;;;;;5041833;28;20107;-44
2023/10/28 03:58:29;;;;;;;3.20;1.10;;;11.40;99.90;;;;;;5041391;28;20021;-44
2023/10/28 04:00:55;;;;;;;2.22;0.88;;;11.40;99.90;;;;;;5041629;28;20035;-44
2023/10/28 04:03:21;;;;;;;1.42;1.10;;;11.40;99.90;;;;;;5040946;28;20033;-44
2023/10/28 04:05:48;;;;;;;1.20;0.95;;;11.40;99.90;;;;;;5041298;28;20029;-44
2023/10/28 04:08:14;;;;;;;1.77;1.05;;;11.40;99.90;;;;;;5041488;28;20028;-42
2023/10/28 04:10:39;;;;;;;2.45;1.25;;;11.40;99.90;;;;;;5042216;28;20029;-44
2023/10/28 04:13:05;;;;;;;2.03;1.10;;;11.40;99.90;;;;;;5040668;28;20055;-44
2023/10/28 04:15:31;;;;;;;2.15;1.08;;;11.40;99.90;;;;;;5041512;28;20025;-44
2023/10/28 04:17:56;;;;;;;1.73;0.90;;;11.40;99.90;;;;;;5041229;28;20128;-44
2023/10/28 04:20:22;;;;;;;2.13;1.00;;;11.40;99.90;;;;;;5041009;28;20075;-44
2023/10/28 04:22:48;;;;;;;1.88;1.13;;;11.40;99.90;;;;;;5041082;28;20354;-44
2023/10/28 04:25:14;;;;;;;1.40;1.10;;;11.40;99.90;;;;;;5041178;28;20033;-43
2023/10/28 04:27:40;;;;;;;2.35;1.27;;;11.40;99.90;;;;;;5041440;28;20075;-44
2023/10/28 04:30:10;;;;;;;2.58;1.33;;;11.40;99.90;;;;;;5041715;28;20028;-43
2023/10/28 04:32:39;;;;;;;1.65;1.10;;;11.40;99.90;;;;;;5041599;28;20095;-43
2023/10/28 04:35:10;;;;;;;2.15;1.10;;;11.40;99.90;;;;;;5040633;28;20051;-44
2023/10/28 04:37:36;;;;;;;1.20;1.00;;;11.40;99.90;;;;;;5042378;28;20029;-43
2023/10/28 04:40:03;;;;;;;1.77;1.20;;;11.40;99.90;;;;;;5040936;28;20032;-44
2023/10/28 04:42:29;;;;;;;1.48;1.20;;;11.50;99.90;;;;;;5041172;28;20849;-45
2023/10/28 04:44:54;;;;;;;1.48;1.10;;;11.50;99.90;;;;;;5041924;28;20029;-45
2023/10/28 04:47:20;;;;;;;1.15;0.88;;;11.50;99.90;;;;;;5040965;28;20016;-45
2023/10/28 04:49:45;;;;;;;1.73;1.20;;;11.50;99.90;;;;;;5041503;28;20476;-44
2023/10/28 04:52:11;;;;;;;2.80;1.23;;;11.50;99.90;;;;;;5041838;28;20100;-45
2023/10/28 04:54:40;;;;;;;1.20;1.10;;;11.50;99.90;;;;;;5041422;28;20523;-45
2023/10/28 04:57:05;;;;;;;2.28;1.35;;;11.50;99.90;;;;;;5041710;28;20025;-45
2023/10/28 04:59:31;;;;;;;1.55;1.30;;;11.50;99.90;;;;;;5041911;28;20021;-43
2023/10/28 05:01:57;;;;;;;2.13;1.20;;;11.50;99.90;;;;;;5041366;28;20013;-44
2023/10/28 05:04:25;;;;;;;1.42;1.15;;;11.50;99.90;;;;;;5041093;28;20033;-43
2023/10/28 05:06:54;;;;;;;3.50;1.30;;;11.50;99.90;;;;;;5041322;28;20087;-44
2023/10/28 05:09:20;;;;;;;3.60;1.10;;;11.50;99.90;;;;;;5040232;28;20551;-44
2023/10/28 05:11:48;;;;;;;1.52;1.30;;;11.50;99.90;;;;;;5041209;28;20025;-44
2023/10/28 05:14:14;;;;;;;2.42;1.17;;;11.50;99.90;;;;;;5040773;28;20033;-45
2023/10/28 05:16:40;;;;;;;2.85;1.20;;;11.50;99.90;;;;;;5040713;28;20020;-45
2023/10/28 05:19:06;;;;;;;2.22;1.10;;;11.50;99.90;;;;;;5040477;28;20547;-44
2023/10/28 05:21:32;;;;;;;1.35;1.17;;;11.50;99.90;;;;;;5040879;28;20029;-44
2023/10/28 05:23:57;;;;;;;1.23;1.13;;;11.40;99.90;;;;;;5039597;28;20032;-45
2023/10/28 05:26:23;;;;;;;1.83;1.10;;;11.40;99.90;;;;;;5040677;28;20048;-44
2023/10/28 05:28:54;;;;;;;2.60;1.58;;;11.40;99.90;;;;;;5041039;28;20473;-45
2023/10/28 05:31:24;;;;;;;1.60;1.15;;;11.40;99.90;;;;;;5040520;28;20079;-45
2023/10/28 05:33:52;;;;;;;3.10;0.95;;;11.40;99.90;;;;;;5040432;28;20053;-45
2023/10/28 05:36:18;;;;;;;1.70;1.00;;;11.40;99.90;;;;;;5039538;28;20017;-44
2023/10/28 05:38:43;;;;;;;3.28;1.40;;;11.50;99.90;;;;;;5040717;28;20033;-45
2023/10/28 05:41:10;;;;;;;1.60;1.25;;;11.50;99.90;;;;;;5039946;28;20036;-44
2023/10/28 05:43:35;;;;;;;1.10;1.00;;;11.50;99.90;;;;;;5039538;28;20878;-45
2023/10/28 05:46:13;;;;;;;1.55;1.27;;;11.50;99.90;;;;;;5040141;28;20128;-44
2023/10/28 05:48:42;;;;;;;2.67;1.30;;;11.50;99.90;;;;;;5040796;28;20115;-44
2023/10/28 05:51:09;;;;;;;2.65;1.05;;;11.50;99.90;;;;;;5039371;28;20675;-44
2023/10/28 05:53:34;;;;;;;1.25;0.95;;;11.50;99.90;;;;;;5040348;28;20036;-44
2023/10/28 05:56:00;;;;;;;1.15;1.00;;;11.50;99.90;;;;;;5039625;28;20029;-44
2023/10/28 05:58:25;;;;;;;1.98;1.02;;;11.50;99.90;;;;;;5039926;28;20052;-44
2023/10/28 06:00:52;;;;;;;1.27;0.98;;;11.50;99.90;;;;;;5040294;28;20048;-44
2023/10/28 06:03:17;;;;;;;1.52;1.20;;;11.50;99.90;;;;;;5039397;28;20553;-44
2023/10/28 06:05:43;;;;;;;1.63;1.25;;;11.50;99.90;;;;;;5039646;28;20021;-44
2023/10/28 06:08:08;;;;;;;1.58;0.90;;;11.50;99.90;;;;;;5040430;28;20025;-44
2023/10/28 06:10:37;;;;;;;1.42;1.10;;;11.50;99.90;;;;;;5039939;28;20013;-44
2023/10/28 06:13:03;;;;;;;1.58;1.10;;;11.50;99.90;;;;;;5039092;28;20029;-44
2023/10/28 06:15:28;;;;;;;2.85;1.42;;;11.50;99.90;;;;;;5039650;28;20087;-44
2023/10/28 06:17:54;;;;;;;2.03;1.50;;;11.50;99.90;;;;;;5040253;28;20534;-44
2023/10/28 06:20:22;;;;;;;2.25;1.30;;;11.50;99.90;;;;;;5039490;28;20021;-44
2023/10/28 06:22:48;;;;;;;1.95;1.55;;;11.50;99.90;;;;;;5041108;28;20021;-44
2023/10/28 06:25:16;;;;;;;4.55;1.52;;;11.50;99.90;;;;;;5039965;28;20036;-44
2023/10/28 06:27:44;;;;;;;3.53;1.92;;;11.50;99.90;;;;;;5042217;28;20060;-44
2023/10/28 06:30:11;;;;;;;1.98;1.50;;;11.50;99.90;;;;;;5044071;28;20444;-44
2023/10/28 06:32:38;;;;;;;3.05;1.45;;;11.50;99.90;;;;;;5042808;28;20629;-45
2023/10/28 06:35:05;;;;;;;3.05;1.83;;;11.50;99.90;;;;;;5044058;28;20096;-44
2023/10/28 06:37:30;;;;;;;2.63;1.77;;;11.50;99.90;;;;;;5043121;28;20807;-44
2023/10/28 06:39:56;;;;;;;2.58;1.48;;;11.50;99.90;;;;;;5042791;28;20025;-44
2023/10/28 06:42:23;;;;;;;1.95;1.60;;;11.50;99.90;;;;;;5042940;28;20713;-44
2023/10/28 06:44:49;;;;;;;1.70;1.40;;;11.50;99.90;;;;;;5043398;28;20094;-44
2023/10/28 06:47:15;;;;;;;2.80;1.70;;;11.50;99.90;;;;;;5042158;28;20029;-44
2023/10/28 06:49:41;;;;;;;1.60;1.50;;;11.50;99.90;;;;;;5043841;28;20033;-44
2023/10/28 06:52:07;;;;;;;1.40;1.30;;;11.50;99.90;;;;;;5043206;28;20029;-45
2023/10/28 06:54:33;;;;;;;2.85;1.70;;;11.50;99.90;;;;;;5042539;28;20029;-44
2023/10/28 06:56:59;;;;;;;1.73;1.63;;;11.50;99.90;;;;;;5042667;28;20067;-44
2023/10/28 06:59:26;;;;;;;3.03;1.73;;;11.50;99.90;;;;;;5043485;28;20025;-44
2023/10/28 07:01:52;;;;;;;2.15;1.38;;;11.50;99.90;;;;;;5042676;28;20017;-44
2023/10/28 07:04:17;;;;;;;1.88;1.50;;;11.50;99.90;;;;;;5042489;28;20044;-44
2023/10/28 07:06:43;;;;;;;2.25;1.63;;;11.50;99.90;;;;;;5043164;28;20025;-45
2023/10/28 07:09:09;;;;;;;2.28;1.55;;;11.60;99.90;;;;;;5042576;28;20029;-45
2023/10/28 07:11:34;;;;;;;2.13;1.27;;;11.60;99.90;;;;;;5043589;28;20040;-45
2023/10/28 07:14:00;;;;;;;4.28;1.80;;;11.60;99.90;;;;;;5042221;28;20539;-44
2023/10/28 07:16:27;;;;;;;3.05;1.95;;;11.60;99.90;;;;;;5041803;28;20028;-44
2023/10/28 07:18:53;;;;;;;3.10;1.60;;;11.60;99.90;;;;;;5042963;28;20031;-43
2023/10/28 07:21:18;;;;;;;3.05;1.88;;;11.60;99.90;;;;;;5042468;28;20029;-44
2023/10/28 07:23:44;;;;;;;2.20;1.70;;;11.60;99.90;;;;;;5042024;28;20123;-46
2023/10/28 07:26:12;;;;;;;3.75;1.40;;;11.70;99.90;;;;;;5041872;28;20147;-45
2023/10/28 07:28:45;;;;;;;1.70;1.55;;;11.70;99.90;;;;;;5043077;28;20029;-44
2023/10/28 07:31:10;;;;;;;3.05;1.48;;;11.70;99.90;;;;;;5042317;28;20032;-44
2023/10/28 07:33:36;;;;;;;2.25;1.30;;;11.70;99.90;;;;;;5042416;28;20060;-44
2023/10/28 07:36:04;;;;;;;2.10;1.30;;;11.80;99.90;;;;;;5042407;28;20040;-44
2023/10/28 07:38:29;;;;;;;1.95;1.40;;;11.80;99.90;;;;;;5040807;28;20029;-44
2023/10/28 07:40:58;;;;;;;2.10;1.33;;;11.80;99.90;;;;;;5042893;28;20017;-44
2023/10/28 07:43:27;;;;;;;1.70;1.30;;;11.80;99.90;;;;;;5042088;28;20142;-44
2023/10/28 07:45:52;;;;;;;1.30;1.20;;;11.90;99.90;;;;;;5042320;28;20037;-46
2023/10/28 07:48:18;;;;;;;2.78;1.23;;;11.80;99.90;;;;;;5042067;28;20023;-45
2023/10/28 07:50:44;;;;;;;2.47;1.60;;;11.90;99.90;;;;;;5041990;28;20448;-44
2023/10/28 07:53:10;;;;;;;1.88;1.23;;;11.90;99.90;;;;;;5041888;28;20666;-44
2023/10/28 07:55:39;;;;;;;2.08;1.30;;;11.90;99.90;;;;;;5042277;28;20028;-45
2023/10/28 07:58:05;;;;;;;1.83;1.55;;;11.90;99.90;;;;;;5041569;28;20110;-45
2023/10/28 08:00:31;;;;;;;1.77;1.30;;;12.00;99.90;;;;;;5041242;28;20135;-45
2023/10/28 08:02:58;;;;;;;2.08;1.20;;;12.00;99.90;;;;;;5041427;28;20654;-45
2023/10/28 08:05:24;;;;;;;2.10;1.42;;;12.00;99.90;;;;;;5041044;28;20062;-45
2023/10/28 08:07:50;;;;;;;2.03;1.60;;;12.00;99.90;;;;;;5042251;28;20029;-44
2023/10/28 08:10:22;;;;;;;2.25;1.75;;;12.10;99.90;;;;;;5041271;28;20025;-44
2023/10/28 08:12:54;;;;;;;2.00;1.40;;;12.10;99.90;;;;;;5041792;28;20041;-45
2023/10/28 08:15:21;;;;;;;3.20;1.48;;;12.20;99.90;;;;;;5041516;28;20029;-45
2023/10/28 08:17:46;;;;;;;1.77;1.25;;;12.20;99.90;;;;;;5041800;28;20048;-45
2023/10/28 08:20:14;;;;;;;2.78;1.52;;;12.20;99.90;;;;;;5040500;28;20033;-45
2023/10/28 08:22:44;;;;;;;1.52;1.30;;;12.20;99.90;;;;;;5041806;28;20044;-45
2023/10/28 08:25:10;;;;;;;2.50;1.48;;;12.20;99.90;;;;;;5040213;28;20037;-44
2023/10/28 08:27:37;;;;;;;1.45;1.27;;;12.30;99.90;;;;;;5041501;28;20020;-44
2023/10/28 08:30:03;;;;;;;3.55;1.63;;;12.30;99.90;;;;;;5041298;28;20773;-45
2023/10/28 08:32:31;;;;;;;4.43;1.35;;;12.30;99.90;;;;;;5040980;28;20075;-44
2023/10/28 08:34:56;;;;;;;1.50;1.40;;;12.40;99.90;;;;;;5040955;28;20063;-44
2023/10/28 08:37:23;;;;;;;2.97;1.55;;;12.40;99.90;;;;;;5041011;28;20716;-45
2023/10/28 08:39:48;;;;;;;2.60;1.38;;;12.40;99.90;;;;;;5040466;28;20056;-44
2023/10/28 08:42:14;;;;;;;2.45;1.58;;;12.40;99.90;;;;;;5040914;28;20021;-45
2023/10/28 08:44:42;;;;;;;3.15;1.40;;;12.50;99.90;;;;;;5041952;28;20037;-45
2023/10/28 08:47:08;;;;;;;2.33;1.40;;;12.50;99.90;;;;;;5040207;28;20202;-44
2023/10/28 08:49:39;;;;;;;2.55;1.48;;;12.50;99.90;;;;;;5040587;28;20041;-45
2023/10/28 08:52:08;;;;;;;1.60;1.20;;;12.50;99.90;;;;;;5040991;28;20063;-45
2023/10/28 08:54:35;;;;;;;1.90;1.30;;;12.50;99.90;;;;;;5041042;28;20033;-45
2023/10/28 08:57:00;;;;;;;2.55;1.35;;;12.50;99.90;;;;;;5040838;28;20024;-44
2023/10/28 08:59:29;;;;;;;3.17;1.40;;;12.60;99.90;;;;;;5040817;28;20102;-44
2023/10/28 09:01:57;;;;;;;2.22;1.30;;;12.70;99.90;;;;;;5040198;28;20059;-45
2023/10/28 09:04:23;;;;;;;2.28;1.20;;;12.70;99.90;;;;;;5040878;28;20115;-44
2023/10/28 09:06:52;;;;;;;2.25;1.27;;;12.70;99.90;;;;;;5040710;28;20021;-46
2023/10/28 09:09:18;;;;;;;4.00;1.60;;;12.80;99.90;;;;;;5040613;28;20114;-45
2023/10/28 09:11:45;;;;;;;3.47;1.23;;;12.80;99.90;;;;;;5041293;28;20024;-45
2023/10/28 09:14:13;;;;;;;4.22;1.35;;;12.90;99.90;;;;;;5040773;28;20108;-45
2023/10/28 09:16:39;;;;;;;5.60;2.38;;;13.00;99.90;;;;;;5040364;28;20024;-44
2023/10/28 09:19:05;;;;;;;4.50;1.60;;;13.00;99.90;;;;;;5040497;28;20079;-44
2023/10/28 09:21:36;;;;;;;2.97;1.50;;;13.10;99.90;;;;;;5040257;28;20024;-44
2023/10/28 09:24:01;;;;;;;1.55;1.30;;;13.20;99.90;;;;;;5040766;28;20044;-44
2023/10/28 09:26:28;;;;;;;2.80;1.30;;;13.20;99.90;;;;;;5041303;28;20029;-45
2023/10/28 09:28:54;;;;;;;2.22;1.30;;;13.30;99.90;;;;;;5040291;28;20095;-45
2023/10/28 09:31:26;;;;;;;3.85;1.80;;;13.40;99.90;;;;;;5040932;28;20032;-44
2023/10/28 09:33:52;;;;;;;2.20;1.27;;;13.40;99.90;;;;;;5040442;28;20045;-44
2023/10/28 09:36:18;;;;;;;3.60;1.40;;;13.40;99.90;;;;;;5039431;28;20033;-44
2023/10/28 09:38:47;;;;;;;3.45;1.70;;;13.40;99.90;;;;;;5040242;28;20468;-44
2023/10/28 09:41:13;;;;;;;1.83;1.67;;;13.40;99.90;;;;;;5039853;28;20033;-43
2023/10/28 09:43:39;;;;;;;3.80;1.98;;;13.40;99.90;;;;;;5040006;28;20029;-44
2023/10/28 09:46:08;;;;;;;2.20;1.70;;;13.40;99.90;;;;;;5040500;28;20021;-44
2023/10/28 09:48:45;;;;;;;3.60;1.90;;;13.40;99.90;;;;;;5040312;28;20789;-44
2023/10/28 09:51:13;;;;;;;4.65;2.10;;;13.40;99.90;;;;;;5039546;28;20033;-44
2023/10/28 09:53:46;;;;;;;3.88;1.70;;;13.50;99.90;;;;;;5040882;28;20025;-45
2023/10/28 09:56:13;;;;;;;4.13;1.60;;;13.50;99.90;;;;;;5040420;28;20586;-45
2023/10/28 09:58:42;;;;;;;5.72;2.13;;;13.50;99.90;;;;;;5040072;28;20056;-45
2023/10/28 10:01:52;;;;;;;5.22;1.55;;;13.60;99.90;;;;;;5041215;28;20047;-44
2023/10/28 10:04:37;;;;;;;3.10;1.50;;;13.60;99.90;;;;;;5019474;28;20038;-44
2023/10/28 10:07:03;;;;;;;3.25;1.45;;;13.60;99.90;;;;;;5024039;28;20125;-44
2023/10/28 10:09:39;;;;;;;2.65;1.25;;;13.60;99.90;;;;;;5039287;28;20025;-44
2023/10/28 10:12:08;;;;;;;2.55;1.60;;;13.60;99.90;;;;;;5043776;28;20028;-44
2023/10/28 10:14:38;;;;;;;4.20;1.55;;;13.60;99.90;;;;;;5043854;28;20025;-44
2023/10/28 10:17:31;;;;;;;2.33;1.30;;;13.60;99.90;;;;;;5043558;28;20774;-44
2023/10/28 10:20:04;;;;;;;;;;;13.60;99.90;;;;;;5042677;28;20555;-44
2023/10/28 10:22:30;;;;;;;4.18;1.50;;;13.60;99.90;;;;;;5024097;28;19913;-44
2023/10/28 10:24:55;;;;;;;1.45;0.98;;;13.60;99.90;;;;;;5037443;28;20032;-44
2023/10/28 10:27:35;;;;;;;4.82;1.73;;;13.70;99.90;;;;;;5044123;28;20557;-44
2023/10/28 10:30:09;;;;;;;3.55;1.38;;;13.70;99.90;;;;;;5043792;28;20021;-46
2023/10/28 10:32:54;;;;;;;1.55;1.05;;;13.70;99.90;;;;;;5043266;28;20102;-45
2023/10/28 10:35:28;;;;;;;2.67;0.90;;;13.70;99.90;;;;;;5043220;28;20072;-45
2023/10/28 10:38:05;;;;;;;2.67;1.25;;;13.80;99.90;;;;;;5043798;28;20297;-45
2023/10/28 10:40:32;;;;;;;1.90;1.20;;;13.80;99.90;;;;;;5042626;28;20025;-45
2023/10/28 10:43:08;;;;;;;2.28;1.10;;;13.90;99.90;;;;;;5044100;28;20357;-45
2023/10/28 10:45:34;;;;;;;1.25;1.00;;;14.00;99.90;;;;;;5044197;28;20044;-45
2023/10/28 10:48:06;;;;;;;2.00;1.08;;;14.00;99.90;;;;;;5042511;28;20734;-45
2023/10/28 10:50:31;;;;;;;4.07;1.53;;;14.00;99.90;;;;;;5043161;28;20104;-45
2023/10/28 10:52:58;;;;;;;2.78;1.20;;;14.00;99.90;;;;;;5042630;28;20023;-44
2023/10/28 10:55:33;;;;;;;2.45;1.02;;;14.10;99.90;;;;;;5043083;28;20064;-45
2023/10/28 10:57:59;;;;;;;2.80;1.02;;;14.20;99.90;;;;;;5043509;28;20043;-45
2023/10/28 11:00:26;;;;;;;3.20;1.08;;;14.30;99.90;;;;;;5042736;28;20025;-45
2023/10/28 11:02:56;;;;;;;3.30;1.13;;;14.30;99.90;;;;;;5043326;28;20025;-45
2023/10/28 11:05:22;;;;;;;1.45;0.93;;;14.40;99.90;;;;;;5042416;28;20530;-46
2023/10/28 11:07:50;;;;;;;2.03;1.20;;;14.40;99.90;;;;;;5042348;28;20028;-46
2023/10/28 11:10:19;;;;;;;2.85;1.08;;;14.40;99.90;;;;;;5042843;28;20870;-46
2023/10/28 11:12:44;;;;;;;1.75;0.90;;;14.40;99.90;;;;;;5043046;28;20384;-45
2023/10/28 11:15:21;;;;;;;3.63;1.23;;;14.40;99.90;;;;;;5042806;28;20032;-45
2023/10/28 11:17:48;;;;;;;4.63;1.63;;;14.40;99.90;;;;;;5043391;28;20029;-45
2023/10/28 11:20:19;;;;;;;3.22;1.30;;;14.40;99.90;;;;;;5042666;28;20028;-44
2023/10/28 11:22:46;;;;;;;2.80;1.20;;;14.40;99.90;;;;;;5039351;28;20119;-45
2023/10/28 11:25:32;;;;;;;2.42;1.30;;;14.40;99.90;;;;;;5042554;28;20518;-44
2023/10/28 11:27:57;;;;;;;3.13;1.27;;;14.50;99.90;;;;;;5041611;28;20086;-45
2023/10/28 11:30:26;;;;;;;3.67;1.40;;;14.50;99.90;;;;;;5042184;28;20021;-45
2023/10/28 11:32:53;;;;;;;3.42;1.35;;;14.50;99.90;;;;;;5042636;28;20095;-44
2023/10/28 11:35:19;;;;;;;3.42;1.30;;;14.50;99.90;;;;;;5041599;28;20056;-45
2023/10/28 11:37:44;;;;;;;3.15;1.45;;;14.60;99.90;;;;;;5043030;28;20028;-45
2023/10/28 11:40:10;;;;;;;3.45;1.10;;;14.70;99.90;;;;;;5042732;28;20035;-45
2023/10/28 11:42:37;;;;;;;5.80;1.20;;;14.80;99.90;;;;;;5041684;28;20469;-45
2023/10/28 11:45:07;;;;;;;3.10;1.17;;;14.70;99.90;;;;;;5042258;28;20422;-46
2023/10/28 11:47:33;;;;;;;2.33;0.93;;;14.80;99.90;;;;;;5042937;28;20021;-45
2023/10/28 11:49:59;;;;;;;3.15;0.98;;;14.90;99.90;;;;;;5041731;28;20075;-45
2023/10/28 11:52:24;;;;;;;3.55;1.30;;;14.90;99.90;;;;;;5041796;28;20380;-45
2023/10/28 11:54:50;;;;;;;3.33;1.45;;;15.00;99.90;;;;;;5043070;28;20140;-45
2023/10/28 11:57:16;;;;;;;2.42;1.17;;;14.90;99.90;;;;;;5040897;28;20025;-44
2023/10/28 11:59:41;;;;;;;4.57;1.20;;;14.90;99.90;;;;;;5042249;28;20071;-44
2023/10/28 12:02:07;;;;;;;3.08;1.10;;;14.90;99.90;;;;;;5041688;28;20032;-45
2023/10/28 12:04:33;;;;;;;4.63;1.10;;;14.90;99.90;;;;;;5030053;28;20048;-47
2023/10/28 12:06:59;;;;;;;3.45;1.02;;;15.00;99.90;;;;;;5041017;28;21320;-45
2023/10/28 12:09:26;;;;;;;4.05;1.52;;;15.10;99.90;;;;;;5042001;28;20044;-44
2023/10/28 12:11:52;;;;;;;2.83;1.33;;;15.10;99.90;;;;;;5041586;28;20029;-44
2023/10/28 12:14:18;;;;;;;4.43;1.10;;;15.20;99.90;;;;;;5040342;28;20037;-44
2023/10/28 12:16:43;;;;;;;6.15;1.92;;;15.20;99.90;;;;;;5042852;28;20029;-45
2023/10/28 12:19:09;;;;;;;5.97;1.25;;;15.20;99.90;;;;;;5040495;28;20068;-44
2023/10/28 12:21:35;;;;;;;4.82;1.30;;;15.20;99.90;;;;;;5042131;28;20025;-44
2023/10/28 12:24:03;;;;;;;5.15;1.23;;;15.30;99.90;;;;;;5041011;28;20167;-45
2023/10/28 12:26:28;;;;;;;4.72;1.23;;;15.30;99.90;;;;;;5040760;28;20063;-44
2023/10/28 12:28:54;;;;;;;2.83;1.00;;;15.30;99.90;;;;;;5041834;28;20112;-45
2023/10/28 12:31:24;;;;;;;5.65;1.52;;;15.40;99.90;;;;;;5040450;28;20033;-44
2023/10/28 12:33:51;;;;;;;4.03;1.17;;;15.40;99.90;;;;;;5041078;28;20045;-44
2023/10/28 12:36:17;;;;;;;3.15;1.25;;;15.40;99.90;;;;;;5040846;28;20044;-44
2023/10/28 12:38:46;;;;;;;3.00;1.10;;;15.40;99.90;;;;;;5041193;28;20028;-44
2023/10/28 12:41:12;;;;;;;2.25;1.20;;;15.40;99.90;;;;;;5041127;28;20032;-45
2023/10/28 12:43:41;;;;;;;6.47;1.70;;;15.40;99.90;;;;;;5040995;28;20982;-45
2023/10/28 12:46:06;;;;;;;5.10;1.67;;;15.40;99.90;;;;;;5040870;28;20033;-45
2023/10/28 12:48:33;;;;;;;4.80;2.40;;;15.50;99.90;;;;;;5041329;28;20380;-45